createdAt,value
2018-05-12T00:00:58.952Z,15
2018-05-12T00:05:59.017Z,14.9
2018-05-12T00:10:58.888Z,14.7
2018-05-12T00:15:58.919Z,14.6
2018-05-12T00:20:58.964Z,14.5
2018-05-12T00:26:11.157Z,14.4
2018-05-12T00:31:11.085Z,14.6
2018-05-12T00:36:10.888Z,14.5
2018-05-12T00:41:11.065Z,14.5
2018-05-12T00:46:10.895Z,14.4
2018-05-12T00:51:10.886Z,14.4
2018-05-12T00:56:10.887Z,14.2
2018-05-12T01:01:13.242Z,14.2
2018-05-12T01:06:13.169Z,14.1
2018-05-12T01:11:25.203Z,14
2018-05-12T01:16:25.080Z,14
2018-05-12T01:21:24.911Z,13.8
2018-05-12T01:26:25.060Z,13.8
2018-05-12T01:31:24.923Z,13.8
2018-05-12T01:36:24.922Z,13.6
2018-05-12T01:41:25.035Z,13.6
2018-05-12T01:46:25.867Z,13.7
2018-05-12T01:51:25.541Z,13.6
2018-05-12T01:56:38.099Z,13.4
2018-05-12T02:01:37.843Z,13.5
2018-05-12T02:06:37.829Z,13.5
2018-05-12T02:11:37.962Z,13.5
2018-05-12T02:16:37.848Z,13.5
2018-05-12T02:21:38.042Z,13.4
2018-05-12T02:26:37.962Z,13.4
2018-05-12T02:31:37.834Z,13.4
2018-05-12T02:36:37.840Z,13.3
2018-05-12T02:41:49.894Z,13.4
2018-05-12T02:46:49.639Z,13.4
2018-05-12T02:51:49.631Z,13.2
2018-05-12T02:56:49.638Z,13.2
2018-05-12T03:01:49.769Z,12.9
2018-05-12T03:06:49.827Z,13.1
2018-05-12T03:11:49.652Z,13
2018-05-12T03:16:49.656Z,12.7
2018-05-12T03:21:49.649Z,12.9
2018-05-12T03:27:01.614Z,12.8
2018-05-12T03:32:01.279Z,12.7
2018-05-12T03:37:01.477Z,12.6
2018-05-12T03:42:01.521Z,12.8
2018-05-12T03:47:01.368Z,12.7
2018-05-12T03:52:01.486Z,12.7
2018-05-12T03:57:01.340Z,12.6
2018-05-12T04:02:01.466Z,12.6
2018-05-12T04:07:01.471Z,12.8
2018-05-12T04:12:14.217Z,12.7
2018-05-12T04:17:14.170Z,13
2018-05-12T04:22:13.937Z,13.2
2018-05-12T04:27:14.114Z,13.4
2018-05-12T04:32:13.935Z,13.6
2018-05-12T04:37:13.928Z,13.8
2018-05-12T04:42:13.965Z,14
2018-05-12T04:47:15.918Z,14.2
2018-05-12T04:52:15.649Z,14.4
2018-05-12T04:57:25.965Z,14.5
2018-05-12T05:02:25.685Z,14.8
2018-05-12T05:07:25.860Z,15.1
2018-05-12T05:12:25.694Z,15.3
2018-05-12T05:17:25.938Z,15.7
2018-05-12T05:22:25.691Z,15.9
2018-05-12T05:27:25.890Z,16.1
2018-05-12T05:32:25.744Z,16.4
2018-05-12T05:37:25.735Z,16.7
2018-05-12T05:42:37.998Z,16.9
2018-05-12T05:47:37.644Z,17.1
2018-05-12T05:52:37.729Z,17.2
2018-05-12T05:57:37.705Z,17.7
2018-05-12T06:02:37.722Z,17.9
2018-05-12T06:07:37.710Z,18.3
2018-05-12T06:12:37.875Z,18.5
2018-05-12T06:17:37.809Z,18.8
2018-05-12T06:22:37.932Z,19
2018-05-12T06:27:49.932Z,19.4
2018-05-12T06:32:49.663Z,19.5
2018-05-12T06:37:49.675Z,19.6
2018-05-12T06:42:49.677Z,20
2018-05-12T06:47:49.670Z,20.3
2018-05-12T06:52:49.739Z,20.6
2018-05-12T06:57:49.667Z,20.8
2018-05-12T07:02:51.052Z,21.1
2018-05-12T07:07:50.956Z,21.2
2018-05-12T07:13:02.906Z,21.4
2018-05-12T07:18:02.649Z,21.6
2018-05-12T07:23:02.823Z,21.6
2018-05-12T07:28:02.844Z,21.9
2018-05-12T07:33:02.691Z,22.4
2018-05-12T07:38:02.647Z,22.3
2018-05-12T07:43:02.650Z,21.8
2018-05-12T07:48:05.521Z,22.2
2018-05-12T07:53:05.354Z,22.1
2018-05-12T07:58:17.922Z,22.4
2018-05-12T08:03:17.587Z,22.5
2018-05-12T08:08:17.802Z,22.1
2018-05-12T08:13:17.761Z,22.3
2018-05-12T08:18:17.704Z,22.7
2018-05-12T08:23:17.658Z,23.2
2018-05-12T08:28:17.663Z,23.3
2018-05-12T08:33:21.047Z,23.8
2018-05-12T08:38:20.776Z,23.6
2018-05-12T08:43:31.313Z,24
2018-05-12T08:48:31.053Z,24.1
2018-05-12T08:53:31.052Z,23.8
2018-05-12T08:58:31.064Z,24.3
2018-05-12T09:03:31.251Z,23.7
2018-05-12T09:08:31.048Z,23.3
2018-05-12T09:13:31.209Z,24
2018-05-12T09:18:33.431Z,23.6
2018-05-12T09:23:33.171Z,24.1
2018-05-12T09:28:45.986Z,24.3
2018-05-12T09:33:45.721Z,24.6
2018-05-12T09:38:45.698Z,25
2018-05-12T09:43:45.719Z,25
2018-05-12T09:48:46.318Z,24.6
2018-05-12T09:53:45.732Z,25
2018-05-12T09:58:45.979Z,24.6
2018-05-12T10:03:47.738Z,25
2018-05-12T10:08:47.648Z,25.2
2018-05-12T10:14:00.051Z,24.7
2018-05-12T10:18:59.847Z,25.1
2018-05-12T10:23:59.980Z,24.9
2018-05-12T10:28:59.897Z,25.1
2018-05-12T10:34:00.035Z,25.5
2018-05-12T10:39:00.039Z,25.2
2018-05-12T10:43:59.999Z,25.2
2018-05-12T10:49:01.263Z,25.8
2018-05-12T10:54:01.001Z,25.9
2018-05-12T10:59:14.276Z,25.6
2018-05-12T11:04:13.925Z,25.7
2018-05-12T11:09:13.964Z,26.2
2018-05-12T11:14:14.117Z,26
2018-05-12T11:19:14.573Z,25.9
2018-05-12T11:24:13.994Z,25.6
2018-05-12T11:29:13.936Z,26.3
2018-05-12T11:34:16.946Z,26.3
2018-05-12T11:39:16.672Z,26.1
2018-05-12T11:44:29.689Z,26.2
2018-05-12T11:49:29.402Z,26.7
2018-05-12T11:54:29.419Z,26.4
2018-05-12T11:59:29.409Z,26.7
2018-05-12T12:04:29.387Z,26.4
2018-05-12T12:09:30.043Z,26.8
2018-05-12T12:14:29.989Z,26.9
2018-05-12T12:19:31.722Z,26.8
2018-05-12T12:24:31.855Z,26.7
2018-05-12T12:29:45.281Z,26.8
2018-05-12T12:34:45.194Z,26.7
2018-05-12T12:39:45.228Z,26.8
2018-05-12T12:44:45.266Z,27
2018-05-12T12:49:44.999Z,27.1
2018-05-12T12:54:45.611Z,27
2018-05-12T12:59:45.355Z,26.9
2018-05-12T13:04:45.489Z,27.4
2018-05-12T13:09:45.355Z,27.3
2018-05-12T13:14:45.369Z,26.9
2018-05-12T13:19:45.361Z,26.7
2018-05-12T13:24:45.519Z,26.7
2018-05-12T13:29:48.546Z,26.1
2018-05-12T13:34:48.276Z,25.9
2018-05-12T13:39:59.158Z,25.6
2018-05-12T13:44:59.078Z,25.6
2018-05-12T13:49:59.021Z,25.6
2018-05-12T13:54:58.932Z,25.4
2018-05-12T13:59:58.928Z,25.6
2018-05-12T14:04:58.914Z,25.9
2018-05-12T14:09:58.920Z,25.6
2018-05-12T14:14:58.931Z,25.5
2018-05-12T14:19:58.938Z,25.3
2018-05-12T14:24:59.155Z,25
2018-05-12T14:29:58.944Z,24.9
2018-05-12T14:34:59.122Z,24.6
2018-05-12T14:39:59.765Z,24.6
2018-05-12T14:44:59.492Z,24.5
2018-05-12T14:50:12.062Z,24.3
2018-05-12T14:55:11.722Z,24.4
2018-05-12T15:00:11.789Z,24.5
2018-05-12T15:05:11.792Z,24.8
2018-05-12T15:10:11.784Z,25
2018-05-12T15:15:11.838Z,25.4
2018-05-12T15:20:11.806Z,25.6
2018-05-12T15:25:14.764Z,25.8
2018-05-12T15:30:11.782Z,26.1
2018-05-12T15:35:23.727Z,26.2
2018-05-12T15:40:23.426Z,26.1
2018-05-12T15:45:23.439Z,26.4
2018-05-12T15:50:23.466Z,26.2
2018-05-12T15:55:23.969Z,26.4
2018-05-12T16:00:23.785Z,26.5
2018-05-12T16:05:23.673Z,26.4
2018-05-12T16:10:23.839Z,26
2018-05-12T16:15:23.709Z,25.9
2018-05-12T16:20:23.847Z,25.4
2018-05-12T16:25:23.731Z,25.4
2018-05-12T16:30:23.957Z,25.3
2018-05-12T16:35:24.455Z,25.1
2018-05-12T16:40:24.092Z,25.1
2018-05-12T16:45:37.237Z,24.9
2018-05-12T16:50:37.040Z,24.7
2018-05-12T16:55:37.105Z,24.5
2018-05-12T17:00:37.171Z,24.3
2018-05-12T17:05:36.982Z,23.8
2018-05-12T17:10:37.478Z,23.7
2018-05-12T17:15:36.981Z,23.6
2018-05-12T17:20:38.737Z,23.4
2018-05-12T17:25:38.473Z,23.4
2018-05-12T17:30:50.641Z,23.2
2018-05-12T17:35:50.304Z,22.9
2018-05-12T17:40:50.367Z,22.8
2018-05-12T17:45:50.359Z,22.5
2018-05-12T17:50:50.368Z,22.3
2018-05-12T17:55:50.382Z,22.2
2018-05-12T18:00:50.561Z,22
2018-05-12T18:05:51.875Z,21.8
2018-05-12T18:10:50.405Z,21.6
2018-05-12T18:16:04.257Z,21.4
2018-05-12T18:21:03.251Z,21.4
2018-05-12T18:26:02.754Z,21.3
2018-05-12T18:31:02.529Z,21.1
2018-05-12T18:36:02.727Z,20.9
2018-05-12T18:41:02.652Z,20.6
2018-05-12T18:46:02.647Z,20.5
2018-05-12T18:51:02.725Z,20.4
2018-05-12T18:56:02.526Z,20.2
2018-05-12T19:01:02.555Z,20.2
2018-05-12T19:06:02.533Z,20
2018-05-12T19:11:02.553Z,19.8
2018-05-12T19:16:03.716Z,19.6
2018-05-12T19:21:03.314Z,19.6
2018-05-12T19:26:15.808Z,19.3
2018-05-12T19:31:15.530Z,19.3
2018-05-12T19:36:15.526Z,19.1
2018-05-12T19:41:15.525Z,19
2018-05-12T19:46:15.533Z,18.9
2018-05-12T19:51:15.540Z,18.8
2018-05-12T19:56:15.484Z,18.8
2018-05-12T20:01:21.805Z,18.7
2018-05-12T20:06:21.391Z,18.5
2018-05-12T20:11:32.183Z,18.4
2018-05-12T20:16:32.076Z,18.4
2018-05-12T20:21:31.935Z,18.2
2018-05-12T20:26:31.923Z,18.3
2018-05-12T20:31:31.933Z,18
2018-05-12T20:36:31.911Z,17.7
2018-05-12T20:41:31.912Z,17.3
2018-05-12T20:46:32.752Z,17.6
2018-05-12T20:51:32.401Z,17.6
2018-05-12T20:56:45.102Z,17.6
2018-05-12T21:01:44.831Z,17.5
2018-05-12T21:06:44.841Z,17.2
2018-05-12T21:11:44.820Z,17.2
2018-05-12T21:16:45.157Z,17.2
2018-05-12T21:21:44.829Z,17.1
2018-05-12T21:26:44.834Z,17
2018-05-12T21:31:47.776Z,16.9
2018-05-12T21:36:47.524Z,16.6
2018-05-12T21:41:57.789Z,16.6
2018-05-12T21:46:57.524Z,16.5
2018-05-12T21:51:57.509Z,16.5
2018-05-12T21:56:57.509Z,16.4
2018-05-12T22:01:57.514Z,16.4
2018-05-12T22:06:57.521Z,16
2018-05-12T22:11:57.537Z,16.1
2018-05-12T22:16:58.302Z,16.1
2018-05-12T22:21:58.054Z,15.9
2018-05-12T22:27:10.371Z,15.9
2018-05-12T22:32:10.060Z,15.7
2018-05-12T22:37:10.066Z,15.7
2018-05-12T22:42:10.085Z,15.6
2018-05-12T22:47:10.084Z,15.4
2018-05-12T22:52:10.087Z,15.5
2018-05-12T22:57:10.131Z,15.4
2018-05-12T23:02:10.489Z,15.4
2018-05-12T23:07:10.226Z,15.2
2018-05-12T23:12:22.477Z,15.1
2018-05-12T23:17:22.196Z,14.9
2018-05-12T23:22:22.221Z,14.9
2018-05-12T23:27:22.387Z,14.9
2018-05-12T23:32:22.213Z,14.9
2018-05-12T23:37:22.211Z,14.8
2018-05-12T23:42:22.304Z,14.7
2018-05-12T23:47:22.170Z,14.7
2018-05-12T23:52:22.243Z,14.7
2018-05-12T23:57:34.405Z,14.6
